Anson, Texas
Current Conditions -  °F | °C
As of 3:58 AM on Wednesday 26 Nov 2014 (Local Time) from KDYS Reporting Station
Clear Clear  
Wind Chill:   Ceiling: Unl
Heat Index: 10°   Visibility: 10mi
Dew Point: -8°   Wind: 12mph
Humidity: 29%   Direction: 240°WSW
Pressure: 30.06"   Gusts: NA
Location:  32.76°N, 99.9°W
Report Text: KDYS 260958Z AUTO 24010KT 10SM CLR 10/M08 A3006 RMK AO2 SLP165 T00971076 $
Loading
Personal Weather Stations






























Interactive Weather Map New forecast layout! Learn more

10-Day Weather Forecast

Advertisements
Track Severe Weather on mobile